Time;durP1;ratioP1;P1;durP2;ratioP2;P2;SDS_P1;SDS_P2;PMS_P1;PMS_P2;Temp;Humidity;BMP_temperature;BMP_pressure;BME280_temperature;BME280_humidity;BME280_pressure;Samples;Min_cycle;Max_cycle;Signal;HPM_P1;HPM_P2
2022/01/30 00:02:12;;;;;;;;;;;;;;;-4.34;97.48;98206.34;5071989;28;20378;-68
2022/01/30 00:04:39;;;;;;;;;;;;;;;-4.36;97.42;98201.31;5071831;28;19948;-68
2022/01/30 00:07:06;;;;;;;;;;;;;;;-4.50;97.47;98203.50;5072292;28;19924;-68
2022/01/30 00:09:33;;;;;;;;;;;;;;;-4.40;97.29;98210.75;5072313;28;19932;-68
2022/01/30 00:12:04;;;;;;;;;;;;;;;-4.57;98.19;98209.66;5072258;28;19932;-68
2022/01/30 00:14:34;;;;;;;;;;;;;;;-4.50;98.13;98214.47;5072327;28;20366;-67
2022/01/30 00:17:06;;;;;;;;;;;;;;;-4.58;98.13;98213.94;5072543;28;19939;-67
2022/01/30 00:19:38;;;;;;;;;;;;;;;-4.54;97.81;98218.03;5072258;28;19932;-68
2022/01/30 00:22:15;;;;;;;;;;;;;;;-4.47;98.04;98224.56;5071929;28;19936;-67
2022/01/30 00:24:49;;;;;;;;;;;;;;;-4.41;97.50;98228.59;5071786;28;20325;-67
2022/01/30 00:27:20;;;;;;;;;;;;;;;-4.48;97.18;98224.59;5071769;28;19924;-67
2022/01/30 00:29:47;;;;;;;;;;;;;;;-4.48;97.49;98233.03;5071780;28;19975;-67
2022/01/30 00:32:13;;;;;;;;;;;;;;;-4.49;98.15;98238.19;5073166;28;19924;-68
2022/01/30 00:34:40;;;;;;;;;;;;;;;-4.54;98.66;98240.03;5075578;28;19925;-67
2022/01/30 00:37:06;;;;;;;;;;;;;;;-4.53;98.08;98242.50;5075431;28;19924;-67
2022/01/30 00:39:33;;;;;;;;;;;;;;;-4.46;97.12;98243.16;5075574;28;20317;-67
2022/01/30 00:41:59;;;;;;;;;;;;;;;-4.39;97.51;98236.97;5075438;28;20256;-67
2022/01/30 00:44:27;;;;;;;;;;;;;;;-4.56;97.76;98239.25;5075683;28;19925;-67
2022/01/30 00:46:55;;;;;;;;;;;;;;;-4.50;97.64;98241.59;5075400;28;19932;-67
2022/01/30 00:49:22;;;;;;;;;;;;;;;-4.55;97.64;98241.72;5075187;28;20047;-67
2022/01/30 00:51:48;;;;;;;;;;;;;;;-4.48;97.93;98249.97;5075090;28;19950;-67
2022/01/30 00:54:15;;;;;;;;;;;;;;;-4.35;97.23;98250.38;5075176;28;19924;-67
2022/01/30 00:56:42;;;;;;;;;;;;;;;-4.36;97.22;98258.91;5075041;28;19931;-67
2022/01/30 00:59:08;;;;;;;;;;;;;;;-4.56;97.44;98259.56;5075381;28;19931;-67
2022/01/30 01:01:36;;;;;;;;;;;;;;;-4.42;97.60;98263.31;5075293;28;19924;-67
2022/01/30 01:04:03;;;;;;;;;;;;;;;-4.33;96.65;98266.41;5074965;28;20306;-67
2022/01/30 01:06:30;;;;;;;;;;;;;;;-4.36;97.33;98269.88;5075039;28;20295;-67
2022/01/30 01:08:59;;;;;;;;;;;;;;;-4.53;97.34;98272.97;5074714;28;20342;-67
2022/01/30 01:11:54;;;;;;;;;;;;;;;-4.36;97.33;98274.94;5074654;28;20024;-67
2022/01/30 01:25:10;;;;;;;;;;;;;;;-4.44;96.97;98299.78;5074627;28;19932;-68
2022/01/30 01:27:36;;;;;;;;;;;;;;;-4.36;96.81;98296.97;5074686;28;19924;-67
2022/01/30 01:30:03;;;;;;;;;;;;;;;-4.46;97.27;98293.91;5074629;28;19931;-67
2022/01/30 01:32:31;;;;;;;;;;;;;;;-4.51;97.17;98303.38;5074812;28;19932;-67
2022/01/30 01:34:58;;;;;;;;;;;;;;;-4.63;97.45;98310.50;5074447;28;19935;-68
2022/01/30 01:37:24;;;;;;;;;;;;;;;-4.56;97.55;98315.41;5074343;28;19924;-67
2022/01/30 01:39:51;;;;;;;;;;;;;;;-4.56;97.55;98315.41;5074199;28;19931;-68
2022/01/30 01:42:17;;;;;;;;;;;;;;;-4.39;96.92;98321.56;5074255;28;19932;-67
2022/01/30 01:44:48;;;;;;;;;;;;;;;-4.59;97.62;98323.94;5074067;28;20374;-67
2022/01/30 01:47:17;;;;;;;;;;;;;;;-4.67;97.71;98326.72;5074048;28;19967;-68
2022/01/30 01:49:46;;;;;;;;;;;;;;;-4.64;97.24;98325.78;5074403;28;20010;-68
2022/01/30 01:52:20;;;;;;;;;;;;;;;-4.65;97.23;98331.72;5074168;28;19932;-68
2022/01/30 01:54:47;;;;;;;;;;;;;;;-4.51;97.03;98328.75;5074124;28;20406;-68
2022/01/30 01:57:13;;;;;;;;;;;;;;;-4.58;97.29;98340.81;5073834;28;19999;-67
2022/01/30 01:59:40;;;;;;;;;;;;;;;-4.47;96.94;98340.47;5073940;28;19924;-67
2022/01/30 02:02:07;;;;;;;;;;;;;;;-4.69;97.43;98347.94;5074341;28;19925;-67
2022/01/30 02:04:34;;;;;;;;;;;;;;;-4.60;97.43;98352.72;5073975;28;20320;-68
2022/01/30 02:07:23;;;;;;;;;;;;;;;-4.72;97.35;98353.13;5073807;28;19947;-68
2022/01/30 02:09:50;;;;;;;;;;;;;;;-4.70;97.50;98356.41;5073660;28;19931;-68
2022/01/30 02:12:20;;;;;;;;;;;;;;;-4.69;97.98;98363.16;5073745;28;19924;-68
2022/01/30 02:15:03;;;;;;;;;;;;;;;-4.66;97.37;98371.50;5073710;28;19924;-68
2022/01/30 02:25:56;;;;;;;;;;;;;;;-4.72;96.74;98383.56;5073450;28;19932;-68
2022/01/30 02:28:24;;;;;;;;;;;;;;;-4.57;97.10;98393.25;5073105;28;20019;-67
2022/01/30 02:30:58;;;;;;;;;;;;;;;-4.61;96.69;98395.03;5073554;28;19924;-68
2022/01/30 02:33:25;;;;;;;;;;;;;;;-4.60;96.37;98394.16;5073191;28;19928;-68
2022/01/30 02:35:51;;;;;;;;;;;;;;;-4.50;96.13;98394.69;5073376;28;19924;-67
2022/01/30 02:38:20;;;;;;;;;;;;;;;-4.56;96.35;98404.22;5072954;28;20271;-67
2022/01/30 02:40:49;;;;;;;;;;;;;;;-4.57;96.55;98412.69;5073239;28;20382;-67
2022/01/30 02:43:19;;;;;;;;;;;;;;;-4.50;96.14;98420.06;5073293;28;20371;-67
2022/01/30 02:45:52;;;;;;;;;;;;;;;-4.59;96.58;98422.91;5072969;28;19928;-65
2022/01/30 02:48:30;;;;;;;;;;;;;;;-4.43;95.69;98424.09;5073103;28;19992;-67
2022/01/30 02:51:09;;;;;;;;;;;;;;;-4.54;96.07;98438.81;5072944;28;19924;-67
2022/01/30 02:53:41;;;;;;;;;;;;;;;-4.50;95.88;98437.00;5072898;28;19928;-67
2022/01/30 02:56:07;;;;;;;;;;;;;;;-4.63;96.26;98441.63;5072672;28;19951;-67
2022/01/30 02:58:34;;;;;;;;;;;;;;;-4.45;95.56;98443.59;5073224;28;19932;-67
2022/01/30 03:01:00;;;;;;;;;;;;;;;-4.49;95.99;98457.28;5072948;28;19924;-67
2022/01/30 03:03:27;;;;;;;;;;;;;;;-4.58;96.32;98452.47;5072909;28;19924;-67
2022/01/30 03:05:54;;;;;;;;;;;;;;;-4.53;95.90;98460.78;5072787;28;19925;-67
2022/01/30 03:08:20;;;;;;;;;;;;;;;-4.55;96.53;98470.13;5073032;28;19928;-67
2022/01/30 03:10:48;;;;;;;;;;;;;;;-4.56;96.71;98477.81;5072803;28;19924;-67
2022/01/30 03:13:15;;;;;;;;;;;;;;;-4.52;95.74;98482.75;5072960;28;19924;-67
2022/01/30 03:15:43;;;;;;;;;;;;;;;-4.62;96.01;98484.75;5072185;28;20302;-68
2022/01/30 03:18:10;;;;;;;;;;;;;;;-4.62;96.71;98499.13;5064413;22;19940;-65
2022/01/30 03:20:37;;;;;;;;;;;;;;;-4.51;96.02;98498.81;5032715;28;20402;-65
2022/01/30 03:23:03;;;;;;;;;;;;;;;-4.51;95.61;98501.34;5032806;28;19929;-59
2022/01/30 03:25:32;;;;;;;;;;;;;;;-4.50;96.29;98508.91;5032769;28;19964;-65
2022/01/30 03:28:01;;;;;;;;;;;;;;;-4.54;96.00;98516.69;5032491;28;19932;-61
2022/01/30 03:30:30;;;;;;;;;;;;;;;-4.51;96.28;98525.03;5032487;28;19932;-66
2022/01/30 03:32:56;;;;;;;;;;;;;;;-4.43;95.74;98529.88;5032633;28;20023;-61
2022/01/30 03:35:23;;;;;;;;;;;;;;;-4.46;95.52;98540.94;5032630;28;19932;-64
2022/01/30 03:37:50;;;;;;;;;;;;;;;-4.45;95.69;98534.16;5032431;28;19932;-64
2022/01/30 03:40:16;;;;;;;;;;;;;;;-4.51;96.19;98537.72;5032607;28;19925;-64
2022/01/30 03:42:43;;;;;;;;;;;;;;;-4.54;95.89;98545.44;5032442;28;19925;-64
2022/01/30 03:45:11;;;;;;;;;;;;;;;-4.52;96.01;98535.22;5032293;28;19932;-64
2022/01/30 03:47:38;;;;;;;;;;;;;;;-4.55;95.86;98548.81;5032378;28;19925;-63
2022/01/30 03:50:05;;;;;;;;;;;;;;;-4.62;96.33;98547.34;5032605;28;19925;-64
2022/01/30 03:52:31;;;;;;;;;;;;;;;-4.56;96.20;98559.03;5032316;28;20364;-64
2022/01/30 03:54:58;;;;;;;;;;;;;;;-4.62;95.81;98565.13;5032149;28;20295;-65
2022/01/30 03:57:24;;;;;;;;;;;;;;;-4.67;96.78;98560.16;5032231;28;19925;-67
2022/01/30 03:59:51;;;;;;;;;;;;;;;-4.71;96.28;98576.34;5032326;28;19948;-65
2022/01/30 04:02:19;;;;;;;;;;;;;;;-4.63;96.46;98578.66;5032264;28;19925;-65
2022/01/30 04:04:46;;;;;;;;;;;;;;;-4.63;95.98;98589.63;5032576;28;19929;-66
2022/01/30 04:07:12;;;;;;;;;;;;;;;-4.60;95.46;98598.88;5035273;28;19925;-65
2022/01/30 04:09:39;;;;;;;;;;;;;;;-4.69;95.92;98601.69;5036227;28;19925;-64
2022/01/30 04:12:06;;;;;;;;;;;;;;;-4.67;95.93;98603.31;5035981;28;19925;-65
2022/01/30 04:14:33;;;;;;;;;;;;;;;-4.73;96.14;98613.59;5036260;28;19925;-66
2022/01/30 04:17:00;;;;;;;;;;;;;;;-4.78;96.55;98612.91;5036356;28;19925;-66
2022/01/30 04:19:28;;;;;;;;;;;;;;;-4.71;96.25;98622.00;5036163;28;20286;-63
2022/01/30 04:21:55;;;;;;;;;;;;;;;-4.78;95.95;98627.28;5035832;28;19928;-66
2022/01/30 04:24:21;;;;;;;;;;;;;;;-4.71;95.97;98624.56;5035876;28;19925;-64
2022/01/30 04:26:48;;;;;;;;;;;;;;;-4.71;95.56;98636.41;5035852;28;20314;-65
2022/01/30 04:29:14;;;;;;;;;;;;;;;-4.69;95.61;98645.66;5035868;28;19940;-67
2022/01/30 04:31:42;;;;;;;;;;;;;;;-4.69;95.32;98657.50;5035838;28;19925;-65
2022/01/30 04:34:09;;;;;;;;;;;;;;;-4.71;95.79;98654.19;5035679;28;20457;-66
2022/01/30 04:36:43;;;;;;;;;;;;;;;-4.71;95.76;98670.22;5035576;28;20425;-64
2022/01/30 04:39:17;;;;;;;;;;;;;;;-4.73;95.45;98677.03;5035453;28;19936;-65
2022/01/30 04:42:17;;;;;;;;;;;;;;;-4.88;96.13;98672.38;5035717;28;19925;-65
2022/01/30 04:53:20;;;;;;;;;;;;;;;-4.87;95.89;98691.81;5035325;28;19971;-65
2022/01/30 04:58:32;;;;;;;;;;;;;;;-4.92;95.39;98703.78;5012666;28;19933;-64
2022/01/30 05:01:07;;;;;;;;;;;;;;;-4.85;95.92;98707.81;5035092;28;19925;-65
2022/01/30 05:03:44;;;;;;;;;;;;;;;-4.89;95.58;98716.38;5035229;28;19924;-63
2022/01/30 05:06:14;;;;;;;;;;;;;;;-4.86;95.75;98723.91;5034982;28;19929;-63
2022/01/30 05:08:43;;;;;;;;;;;;;;;-4.89;95.84;98734.13;5035246;28;19965;-65
2022/01/30 05:11:10;;;;;;;;;;;;;;;-4.96;95.63;98741.03;5034970;28;19925;-64
2022/01/30 05:13:42;;;;;;;;;;;;;;;-4.88;95.54;98751.00;5034722;28;19925;-64
2022/01/30 05:16:09;;;;;;;;;;;;;;;-4.93;95.42;98760.44;5034763;28;19929;-62
2022/01/30 05:18:36;;;;;;;;;;;;;;;-4.92;95.54;98767.19;5045682;23;19925;-65
2022/01/30 05:21:03;;;;;;;;;;;;;;;-4.92;95.25;98770.56;5034919;28;20279;-65
2022/01/30 05:23:30;;;;;;;;;;;;;;;-4.85;95.20;98771.25;5034705;28;19932;-66
2022/01/30 05:25:59;;;;;;;;;;;;;;;-4.93;95.26;98768.03;5035008;28;20295;-65
2022/01/30 05:28:26;;;;;;;;;;;;;;;-4.89;95.72;98782.31;5034780;28;19933;-65
2022/01/30 05:30:53;;;;;;;;;;;;;;;-4.89;95.69;98797.53;5034899;28;19925;-66
2022/01/30 05:33:19;;;;;;;;;;;;;;;-4.87;95.11;98803.44;5034791;28;19925;-65
2022/01/30 05:35:46;;;;;;;;;;;;;;;-4.93;95.22;98806.94;5034651;28;20605;-65
2022/01/30 05:38:13;;;;;;;;;;;;;;;-4.86;95.46;98807.63;5034333;28;19936;-66
2022/01/30 05:40:40;;;;;;;;;;;;;;;-4.92;94.78;98811.13;5034201;28;19925;-66
2022/01/30 05:43:08;;;;;;;;;;;;;;;-4.84;95.65;98816.84;5034213;28;20387;-66
2022/01/30 05:45:38;;;;;;;;;;;;;;;-4.95;95.01;98820.53;5034447;28;19925;-66
2022/01/30 05:48:09;;;;;;;;;;;;;;;-4.95;95.23;98826.44;5034596;28;19925;-66
2022/01/30 05:50:36;;;;;;;;;;;;;;;-4.83;94.79;98832.91;5034103;28;19976;-66
2022/01/30 05:53:03;;;;;;;;;;;;;;;-4.87;95.17;98832.16;5034178;28;20404;-66
2022/01/30 05:55:31;;;;;;;;;;;;;;;-4.82;95.18;98842.22;5034464;28;19926;-65
2022/01/30 05:57:58;;;;;;;;;;;;;;;-4.85;95.30;98848.19;5033956;28;20020;-66
2022/01/30 06:00:26;;;;;;;;;;;;;;;-4.96;95.49;98854.34;5034206;28;19925;-66
2022/01/30 06:02:52;;;;;;;;;;;;;;;-4.87;95.41;98847.38;5034268;28;19929;-66
2022/01/30 06:05:23;;;;;;;;;;;;;;;-5.01;96.24;98863.78;5033963;28;19936;-66
2022/01/30 06:07:52;;;;;;;;;;;;;;;-4.86;95.28;98860.88;5033856;28;19929;-66
2022/01/30 06:10:19;;;;;;;;;;;;;;;-5.05;95.54;98868.91;5033712;28;19929;-66
2022/01/30 06:12:46;;;;;;;;;;;;;;;-4.96;95.73;98879.72;5033885;28;19929;-66
2022/01/30 06:15:13;;;;;;;;;;;;;;;-5.03;96.17;98882.41;5034120;28;19975;-66
2022/01/30 06:17:41;;;;;;;;;;;;;;;-4.90;95.33;98893.13;5051091;22;19932;-66
2022/01/30 06:20:08;;;;;;;;;;;;;;;-4.99;95.97;98906.00;5053764;28;19928;-61
2022/01/30 06:22:35;;;;;;;;;;;;;;;-4.93;95.38;98899.94;5053610;28;19925;-65
2022/01/30 06:25:01;;;;;;;;;;;;;;;-4.98;95.56;98919.50;5053382;28;19925;-65
2022/01/30 06:27:28;;;;;;;;;;;;;;;-5.02;95.15;98921.28;5053273;28;19932;-65
2022/01/30 06:29:54;;;;;;;;;;;;;;;-4.94;95.59;98923.66;5052577;28;19946;-65
2022/01/30 06:32:21;;;;;;;;;;;;;;;-4.89;94.91;98927.75;5053440;28;19924;-65
2022/01/30 06:34:49;;;;;;;;;;;;;;;-4.91;94.82;98926.94;5053405;28;20306;-66
2022/01/30 06:37:16;;;;;;;;;;;;;;;-4.95;94.96;98927.91;5053281;28;19925;-66
2022/01/30 06:39:42;;;;;;;;;;;;;;;-4.97;94.90;98939.78;5053261;28;20299;-65
2022/01/30 06:42:09;;;;;;;;;;;;;;;-5.02;95.33;98944.09;5053246;28;19925;-61
2022/01/30 06:44:37;;;;;;;;;;;;;;;-4.93;94.96;98950.69;5053029;28;19933;-61
2022/01/30 06:47:04;;;;;;;;;;;;;;;-5.04;94.73;98954.28;5053209;28;20023;-65
2022/01/30 06:49:30;;;;;;;;;;;;;;;-4.93;94.62;98951.53;5053275;28;19932;-65
2022/01/30 06:51:58;;;;;;;;;;;;;;;-4.98;95.35;98953.34;5053303;28;19931;-65
2022/01/30 06:54:25;;;;;;;;;;;;;;;-5.04;95.00;98964.41;5053197;28;19929;-65
2022/01/30 06:56:51;;;;;;;;;;;;;;;-5.06;95.54;98966.16;5052908;28;19928;-65
2022/01/30 06:59:18;;;;;;;;;;;;;;;-5.08;95.64;98977.22;5052762;28;19928;-60
2022/01/30 07:01:45;;;;;;;;;;;;;;;-5.00;95.30;98979.59;5052922;28;19929;-65
2022/01/30 07:04:13;;;;;;;;;;;;;;;-4.97;94.89;98982.91;5052970;28;19928;-65
2022/01/30 07:06:40;;;;;;;;;;;;;;;-5.12;95.57;98994.16;5052766;28;19925;-65
2022/01/30 07:09:08;;;;;;;;;;;;;;;-5.03;95.34;98996.53;5052447;28;19931;-64
2022/01/30 07:11:34;;;;;;;;;;;;;;;-5.10;95.11;99000.06;5052721;28;19933;-64
2022/01/30 07:14:01;;;;;;;;;;;;;;;-4.98;94.99;99004.06;5053684;28;19924;-65
2022/01/30 07:16:28;;;;;;;;;;;;;;;-5.12;95.61;99003.47;5053897;28;19925;-66
2022/01/30 07:18:55;;;;;;;;;;;;;;;-5.14;95.91;99003.50;5065551;22;19925;-65
2022/01/30 07:21:21;;;;;;;;;;;;;;;-4.99;94.48;99014.22;5052600;28;19924;-65
2022/01/30 07:23:48;;;;;;;;;;;;;;;-5.11;95.15;99023.75;5052442;28;19925;-65
2022/01/30 07:26:16;;;;;;;;;;;;;;;-4.99;94.88;99030.28;5052354;28;19925;-65
2022/01/30 07:28:42;;;;;;;;;;;;;;;-5.00;94.40;99031.16;5052631;28;19925;-65
2022/01/30 07:31:09;;;;;;;;;;;;;;;-5.03;94.77;99052.34;5052556;28;19929;-66
2022/01/30 07:33:39;;;;;;;;;;;;;;;-4.99;94.30;99042.97;5052328;28;20379;-65
2022/01/30 07:36:07;;;;;;;;;;;;;;;-5.11;94.91;99055.88;5052308;28;19963;-68
2022/01/30 07:38:35;;;;;;;;;;;;;;;-5.13;94.87;99068.59;5052363;28;19979;-66
2022/01/30 07:41:01;;;;;;;;;;;;;;;-5.15;94.88;99066.94;5053472;28;20264;-66
2022/01/30 07:43:29;;;;;;;;;;;;;;;-5.14;94.68;99074.50;5056845;28;19925;-66
2022/01/30 07:45:56;;;;;;;;;;;;;;;-5.24;94.70;99080.63;5056672;28;20019;-66
2022/01/30 07:48:23;;;;;;;;;;;;;;;-5.26;94.41;99080.66;5056484;28;19931;-66
2022/01/30 07:50:49;;;;;;;;;;;;;;;-5.23;94.19;99084.00;5056517;28;19924;-66
2022/01/30 07:53:16;;;;;;;;;;;;;;;-5.30;93.99;99094.22;5056350;28;19932;-67
2022/01/30 07:55:42;;;;;;;;;;;;;;;-5.24;94.41;99100.91;5056192;28;19925;-66
2022/01/30 07:58:10;;;;;;;;;;;;;;;-5.36;94.62;99103.66;5056060;28;19929;-66
2022/01/30 08:00:38;;;;;;;;;;;;;;;-5.30;93.70;99106.06;5056316;28;19980;-66
2022/01/30 08:03:05;;;;;;;;;;;;;;;-5.34;93.58;99114.63;5056339;28;20363;-66
2022/01/30 08:05:32;;;;;;;;;;;;;;;-5.31;94.35;99117.09;5056787;28;19969;-66
2022/01/30 08:07:58;;;;;;;;;;;;;;;-5.30;93.82;99124.66;5055998;28;19925;-66
2022/01/30 08:10:25;;;;;;;;;;;;;;;-5.31;93.76;99139.91;5056095;28;19932;-66
2022/01/30 08:12:51;;;;;;;;;;;;;;;-5.37;93.53;99137.47;5056334;28;19947;-66
2022/01/30 08:15:18;;;;;;;;;;;;;;;-5.37;93.22;99148.47;5056072;28;19931;-66
2022/01/30 08:17:47;;;;;;;;;;;;;;;-5.38;93.67;99151.00;5056389;28;19924;-67
2022/01/30 08:20:14;;;;;;;;;;;;;;;-5.49;93.90;99151.19;5055884;28;19928;-67
2022/01/30 08:22:48;;;;;;;;;;;;;;;-5.38;93.65;99151.00;5055805;28;19936;-67
2022/01/30 08:25:15;;;;;;;;;;;;;;;-5.51;92.74;99166.41;5055668;28;19931;-66
2022/01/30 08:27:41;;;;;;;;;;;;;;;-5.42;93.18;99177.25;5055668;28;20359;-66
2022/01/30 08:30:08;;;;;;;;;;;;;;;-5.53;93.10;99187.56;5055784;28;20276;-65
2022/01/30 08:32:38;;;;;;;;;;;;;;;-5.48;92.95;99190.84;5055808;28;20272;-65
2022/01/30 08:35:06;;;;;;;;;;;;;;;-5.61;93.53;99205.41;5055593;28;20299;-68
2022/01/30 08:37:35;;;;;;;;;;;;;;;-5.53;93.12;99216.25;5055741;28;19932;-66
2022/01/30 08:40:02;;;;;;;;;;;;;;;-5.54;93.47;99208.69;5055404;28;20283;-65
2022/01/30 08:42:28;;;;;;;;;;;;;;;-5.73;93.08;99221.63;5055485;28;19928;-65
2022/01/30 08:44:55;;;;;;;;;;;;;;;-5.73;93.09;99221.63;5055520;28;20251;-65
2022/01/30 08:47:22;;;;;;;;;;;;;;;-5.62;93.75;99226.56;5055263;28;19929;-66
2022/01/30 08:49:49;;;;;;;;;;;;;;;-5.67;93.66;99235.91;5055259;28;19929;-65
2022/01/30 08:52:19;;;;;;;;;;;;;;;-5.64;93.76;99238.41;5054361;28;19932;-66
2022/01/30 08:54:45;;;;;;;;;;;;;;;-5.66;92.97;99236.75;5055190;28;19936;-65
2022/01/30 08:57:12;;;;;;;;;;;;;;;-5.65;92.98;99233.34;5055008;28;19932;-65
2022/01/30 08:59:39;;;;;;;;;;;;;;;-5.71;92.76;99249.47;5055026;28;19925;-65
2022/01/30 09:02:05;;;;;;;;;;;;;;;-5.81;92.70;99247.91;5055058;28;20382;-65
2022/01/30 09:04:32;;;;;;;;;;;;;;;-5.79;93.13;99254.63;5055402;28;19932;-66
2022/01/30 09:06:59;;;;;;;;;;;;;;;-5.71;93.27;99264.66;5054995;28;19925;-66
2022/01/30 09:09:27;;;;;;;;;;;;;;;-5.73;92.19;99258.78;5054946;28;19925;-66
2022/01/30 09:11:53;;;;;;;;;;;;;;;-5.87;92.15;99256.44;5054987;28;20405;-65
2022/01/30 09:14:21;;;;;;;;;;;;;;;-5.94;92.84;99275.13;5054848;28;19925;-66
2022/01/30 09:16:48;;;;;;;;;;;;;;;-6.06;91.77;99278.63;5054455;28;20379;-66
2022/01/30 09:19:15;;;;;;;;;;;;;;;-6.16;92.17;99285.50;5055010;28;19931;-66
2022/01/30 09:21:41;;;;;;;;;;;;;;;-6.18;92.13;99296.50;5054632;28;19924;-66
2022/01/30 09:24:08;;;;;;;;;;;;;;;-6.36;92.14;99303.41;5054969;28;19925;-65
2022/01/30 09:26:36;;;;;;;;;;;;;;;-6.31;92.06;99315.19;5054960;28;19925;-66
2022/01/30 09:29:02;;;;;;;;;;;;;;;-6.55;92.01;99319.63;5054475;28;19925;-66
2022/01/30 09:31:29;;;;;;;;;;;;;;;-6.37;91.71;99324.53;5054937;28;19948;-67
2022/01/30 09:33:55;;;;;;;;;;;;;;;-6.29;91.86;99326.13;5054524;28;19925;-66
2022/01/30 09:36:22;;;;;;;;;;;;;;;-6.31;91.02;99343.03;5054600;28;19932;-66
2022/01/30 09:38:50;;;;;;;;;;;;;;;-6.33;91.21;99339.66;5054339;28;20382;-67
2022/01/30 09:41:17;;;;;;;;;;;;;;;-6.45;90.86;99349.03;5054362;28;20294;-66
2022/01/30 09:43:45;;;;;;;;;;;;;;;-6.44;90.85;99349.91;5054247;28;19932;-66
2022/01/30 09:46:12;;;;;;;;;;;;;;;-6.31;90.77;99346.41;5054268;28;19929;-67
2022/01/30 09:48:39;;;;;;;;;;;;;;;-6.42;90.03;99345.63;5054117;28;19939;-66
2022/01/30 09:51:08;;;;;;;;;;;;;;;-6.60;89.95;99350.03;5054236;28;19980;-67
2022/01/30 09:53:35;;;;;;;;;;;;;;;-6.81;90.37;99351.03;5054147;28;19928;-66
2022/01/30 09:56:03;;;;;;;;;;;;;;;-6.76;90.64;99358.56;5054080;28;19932;-67
2022/01/30 09:58:30;;;;;;;;;;;;;;;-6.85;90.21;99372.13;5053829;28;19933;-67
2022/01/30 10:00:58;;;;;;;;;;;;;;;-6.83;89.64;99375.47;5053932;28;19925;-66
2022/01/30 10:03:26;;;;;;;;;;;;;;;-6.95;89.94;99377.25;5053669;28;20314;-67
2022/01/30 10:06:01;;;;;;;;;;;;;;;-6.99;89.59;99384.00;5054005;28;19925;-67
2022/01/30 10:08:28;;;;;;;;;;;;;;;-6.91;89.64;99384.81;5053672;28;20294;-67
2022/01/30 10:10:59;;;;;;;;;;;;;;;-7.13;89.36;99390.84;5053384;28;19932;-67
2022/01/30 10:13:30;;;;;;;;;;;;;;;-7.06;88.50;99405.97;5053763;28;19925;-67
2022/01/30 10:16:03;;;;;;;;;;;;;;;-7.00;89.06;99407.63;5053390;28;20375;-66
2022/01/30 10:18:32;;;;;;;;;;;;;;;-7.31;88.59;99411.97;5054053;28;19965;-67
2022/01/30 10:20:58;;;;;;;;;;;;;;;-7.28;89.01;99410.25;5053596;28;20024;-67
2022/01/30 10:23:31;;;;;;;;;;;;;;;-7.41;88.17;99411.16;5053420;28;20371;-66
2022/01/30 10:25:58;;;;;;;;;;;;;;;-7.45;88.36;99430.56;5053852;28;19932;-67
2022/01/30 10:28:28;;;;;;;;;;;;;;;-7.70;88.00;99427.25;5050646;28;19925;-66
2022/01/30 10:30:56;;;;;;;;;;;;;;;-7.73;88.62;99432.31;5052107;28;19925;-66
2022/01/30 10:33:37;;;;;;;;;;;;;;;-7.65;89.02;99434.84;5052717;28;19925;-66
2022/01/30 10:36:04;;;;;;;;;;;;;;;-7.77;89.01;99440.72;5052662;28;19932;-66
2022/01/30 10:38:35;;;;;;;;;;;;;;;-7.56;88.09;99454.16;5032649;28;19936;-66
2022/01/30 10:41:10;;;;;;;;;;;;;;;-7.67;87.91;99457.56;5033051;28;19984;-66
2022/01/30 10:43:48;;;;;;;;;;;;;;;-7.56;87.32;99456.69;5033380;28;19932;-66
2022/01/30 10:46:18;;;;;;;;;;;;;;;-7.73;87.99;99465.16;5047594;28;19925;-67
2022/01/30 10:48:52;;;;;;;;;;;;;;;-7.60;87.86;99457.53;5053144;28;19924;-67
2022/01/30 10:51:18;;;;;;;;;;;;;;;-7.58;87.42;99471.84;5052933;28;19978;-67
2022/01/30 10:53:46;;;;;;;;;;;;;;;-7.55;86.79;99481.97;5052925;28;19924;-66
2022/01/30 10:56:18;;;;;;;;;;;;;;;-7.61;87.11;99493.75;5052797;28;20393;-67
2022/01/30 10:59:04;;;;;;;;;;;;;;;-7.77;87.52;99498.81;5052955;28;19933;-67
2022/01/30 11:01:30;;;;;;;;;;;;;;;-7.96;87.40;99500.53;5052899;28;19924;-67
2022/01/30 11:04:01;;;;;;;;;;;;;;;-7.79;87.88;99492.09;5050945;28;20406;-67
2022/01/30 11:06:28;;;;;;;;;;;;;;;-7.98;88.55;99508.94;5052542;28;19972;-68
2022/01/30 11:09:05;;;;;;;;;;;;;;;-7.85;87.95;99508.09;5052576;28;19931;-68
2022/01/30 11:11:35;;;;;;;;;;;;;;;-7.73;87.67;99519.84;5052080;28;20375;-67
2022/01/30 11:14:15;;;;;;;;;;;;;;;-7.73;87.32;99524.91;5052451;28;19929;-67
2022/01/30 11:17:03;;;;;;;;;;;;;;;-7.74;87.62;99515.66;5052023;28;19974;-67
2022/01/30 11:19:33;;;;;;;;;;;;;;;-7.79;88.23;99520.69;5033530;28;19929;-67
2022/01/30 11:22:00;;;;;;;;;;;;;;;-7.84;87.22;99527.44;5032753;28;19925;-68
2022/01/30 11:24:27;;;;;;;;;;;;;;;-8.14;88.15;99534.16;5032246;28;19932;-67
2022/01/30 11:26:55;;;;;;;;;;;;;;;-8.17;88.70;99533.31;5032078;28;19925;-67
2022/01/30 11:29:21;;;;;;;;;;;;;;;-7.99;88.43;99545.97;5032254;28;19925;-67
2022/01/30 11:31:48;;;;;;;;;;;;;;;-8.20;88.54;99550.97;5032874;28;19932;-67
2022/01/30 11:34:15;;;;;;;;;;;;;;;-8.11;88.15;99546.78;5032690;28;19925;-67
2022/01/30 11:36:44;;;;;;;;;;;;;;;-8.14;88.36;99551.84;5032147;28;19932;-67
2022/01/30 11:39:14;;;;;;;;;;;;;;;-8.22;88.28;99555.16;5032623;28;19925;-67
2022/01/30 11:41:41;;;;;;;;;;;;;;;-8.27;87.87;99557.72;5032590;28;19925;-68
2022/01/30 11:44:26;;;;;;;;;;;;;;;-8.40;88.74;99572.00;5032480;28;19932;-68
2022/01/30 11:47:11;;;;;;;;;;;;;;;-8.33;89.21;99572.81;5032071;28;19988;-68
2022/01/30 11:49:38;;;;;;;;;;;;;;;-8.39;88.75;99572.84;5032120;28;19933;-67
2022/01/30 11:52:09;;;;;;;;;;;;;;;-8.32;88.89;99584.63;5032158;28;20309;-67
2022/01/30 11:54:36;;;;;;;;;;;;;;;-8.31;88.31;99581.25;5032682;28;20016;-68
2022/01/30 11:57:03;;;;;;;;;;;;;;;-8.31;88.32;99586.28;5032127;28;19925;-68
2022/01/30 11:59:36;;;;;;;;;;;;;;;-8.28;88.22;99588.81;5031929;28;19932;-68
2022/01/30 12:02:17;;;;;;;;;;;;;;;-8.29;88.09;99597.22;5032391;28;19960;-67
2022/01/30 12:04:53;;;;;;;;;;;;;;;-8.35;88.90;99602.25;5031792;28;20386;-67
2022/01/30 12:07:33;;;;;;;;;;;;;;;-8.41;88.45;99607.31;5032296;28;19925;-67
2022/01/30 12:10:18;;;;;;;;;;;;;;;-8.41;88.82;99604.78;5032081;28;19925;-67
2022/01/30 12:12:49;;;;;;;;;;;;;;;-8.39;88.62;99613.22;5032177;28;19925;-67
2022/01/30 12:15:30;;;;;;;;;;;;;;;-8.31;88.42;99609.00;5032043;28;19926;-67
2022/01/30 12:17:57;;;;;;;;;;;;;;;-8.31;87.04;99616.56;5039407;22;19925;-69
2022/01/30 12:20:23;;;;;;;;;;;;;;;-8.26;86.96;99616.59;5012362;28;19926;-66
2022/01/30 12:22:52;;;;;;;;;;;;;;;-8.44;87.53;99630.84;5012273;28;19925;-66
2022/01/30 12:25:45;;;;;;;;;;;;;;;-8.46;87.43;99629.16;5012588;28;19933;-65
2022/01/30 12:28:13;;;;;;;;;;;;;;;-8.44;87.22;99635.06;5014753;28;19936;-66
2022/01/30 12:30:51;;;;;;;;;;;;;;;-8.49;87.28;99647.66;5015796;28;19929;-66
2022/01/30 12:33:36;;;;;;;;;;;;;;;-8.61;88.23;99650.09;5016281;28;19948;-63
2022/01/30 12:36:04;;;;;;;;;;;;;;;-8.62;88.04;99656.00;5015364;28;19932;-62
2022/01/30 12:38:33;;;;;;;;;;;;;;;-8.65;88.05;99656.81;5015557;28;19926;-62
2022/01/30 12:41:00;;;;;;;;;;;;;;;-8.69;88.28;99659.31;5015644;28;20292;-67
2022/01/30 12:43:27;;;;;;;;;;;;;;;-8.62;87.04;99661.88;5015535;28;20364;-66
2022/01/30 12:46:04;;;;;;;;;;;;;;;-8.70;87.86;99667.72;5015670;28;19980;-66
2022/01/30 12:48:30;;;;;;;;;;;;;;;-8.82;87.98;99676.88;5015747;28;20292;-67
2022/01/30 12:51:02;;;;;;;;;;;;;;;-8.76;87.68;99678.59;5015728;28;19925;-65
2022/01/30 12:53:29;;;;;;;;;;;;;;;-8.88;87.63;99683.59;5015238;28;20392;-64
2022/01/30 12:55:59;;;;;;;;;;;;;;;-8.88;87.82;99683.59;5015460;28;20296;-66
2022/01/30 12:58:29;;;;;;;;;;;;;;;-8.89;88.09;99687.75;5015127;28;20368;-64
2022/01/30 13:01:05;;;;;;;;;;;;;;;-9.10;88.69;99692.66;5015299;28;19932;-63
2022/01/30 13:03:32;;;;;;;;;;;;;;;-8.93;87.26;99696.16;5015399;28;19933;-66
2022/01/30 13:05:59;;;;;;;;;;;;;;;-8.88;88.22;99699.56;5015107;28;20296;-65
2022/01/30 13:08:41;;;;;;;;;;;;;;;-8.76;87.12;99703.81;5015394;28;19972;-62
2022/01/30 13:11:16;;;;;;;;;;;;;;;-8.90;87.29;99705.41;5015184;28;19932;-62
2022/01/30 13:13:55;;;;;;;;;;;;;;;-8.95;88.17;99705.38;5014906;28;19932;-63
2022/01/30 13:16:22;;;;;;;;;;;;;;;-9.09;88.09;99710.31;5015122;28;19972;-61
2022/01/30 13:18:49;;;;;;;;;;;;;;;-8.94;87.80;99718.81;5059315;22;19925;-67
2022/01/30 13:21:15;;;;;;;;;;;;;;;-9.07;87.26;99723.75;5074301;28;19935;-67
2022/01/30 13:23:46;;;;;;;;;;;;;;;-9.03;87.80;99724.66;5074516;28;19931;-66
2022/01/30 13:26:12;;;;;;;;;;;;;;;-9.09;87.70;99727.09;5074357;28;19925;-70
2022/01/30 13:28:40;;;;;;;;;;;;;;;-9.02;87.37;99736.41;5074214;28;20386;-67